Weather reports worldwide

Advertisment
Ross-on-Wye, United Kingdom (99207): temperature & dewpoint: 25.10.2020 03:00:00 - 31.10.2020 03:00:00 (GMT)Ross-on-Wye, United Kingdom (99207): temperature -20cm: 25.10.2020 03:00:00 - 31.10.2020 03:00:00 (GMT)Ross-on-Wye, United Kingdom (99207): wind speed & gusts: 25.10.2020 03:00:00 - 31.10.2020 03:00:00 (GMT)Ross-on-Wye, United Kingdom (99207): wind direction: 25.10.2020 03:00:00 - 31.10.2020 03:00:00 (GMT)Ross-on-Wye, United Kingdom (99207): sunshine duration: 25.10.2020 03:00:00 - 31.10.2020 03:00:00 (GMT)Ross-on-Wye, United Kingdom (99207): precipitation: 25.10.2020 03:00:00 - 31.10.2020 03:00:00 (GMT)
Date & Time tt [°C] td [°C] tt -20cm [°C] ff [km/h] ff [kn] fx [km/h] fx [kn] dd sd [min] rr [mm]
31.10.2020 03:00:00 14,1 12,7 - 11 6 - - S 0 0,0
31.10.2020 02:00:00 14,3 12,8 - 13 7 - - SSW 0 0,0
31.10.2020 01:00:00 14,4 13,1 - 15 8 - - S 0 0,0
31.10.2020 00:00:00 14,3 13,2 - 11 6 - - S - 0,0
30.10.2020 23:00:00 14,2 13,2 - 13 7 - - SSW 0 0,0
30.10.2020 22:00:00 14,1 13,2 - 9 5 - - S 0 0,0
30.10.2020 21:00:00 13,6 13,1 - 4 2 - - S 0 0,0
30.10.2020 20:00:00 13,2 12,4 - 4 2 - - ESE 0 0,4
30.10.2020 19:00:00 13,5 12,0 - 5 3 - - SSW 0 0,0
30.10.2020 18:00:00 14,2 11,5 - 5 3 - - SW 0 0,0
30.10.2020 17:00:00 14,5 11,9 - 8 4 - - SSW 0 0,0
30.10.2020 16:00:00 14,9 12,4 - 13 7 - - SW 0 0,0
30.10.2020 15:00:00 15,3 13,0 - 13 7 - - SW 0 0,0
30.10.2020 14:00:00 15,7 13,2 - 11 6 - - SSW 0 0,0
30.10.2020 13:00:00 15,9 13,3 - 13 7 - - SW 0 0,0
30.10.2020 12:00:00 16,0 13,5 - 13 7 - - SW 6 0,0
30.10.2020 11:00:00 15,2 13,3 - 15 8 - - SW 0 0,0
30.10.2020 10:00:00 14,8 13,1 - 24 13 - - SW 0 0,0
30.10.2020 09:00:00 14,6 13,1 11,2 24 13 - - SW 0 0,0
30.10.2020 08:00:00 14,5 12,8 - 16 9 - - SW 0 0,0
30.10.2020 07:00:00 14,3 12,7 - 16 9 - - SSW 0 0,0
30.10.2020 06:00:00 14,1 13,0 - 15 8 - - SW 0 0,0
30.10.2020 05:00:00 14,2 12,9 - 16 9 - - SW 0 0,0
30.10.2020 04:00:00 14,2 12,7 - 13 7 - - SW 0 0,0
30.10.2020 03:00:00 14,2 12,6 - 21 11 - - SW 0 0,0
30.10.2020 02:00:00 14,0 12,6 - 24 13 - - SW 0 0,0
30.10.2020 01:00:00 14,0 12,5 - 21 11 46 25 SW 0 0,0
30.10.2020 00:00:00 14,0 12,2 - 24 13 - - SW - 0,0
29.10.2020 23:00:00 14,4 11,8 - 21 11 - - SW 0 0,0
29.10.2020 22:00:00 14,5 11,7 - 22 12 - - SW 0 0,0
29.10.2020 21:00:00 14,5 11,6 - 21 11 - - SW 0 0,0
29.10.2020 20:00:00 14,1 11,9 - 24 13 48 26 SW 0 0,0
29.10.2020 19:00:00 14,4 12,0 - 21 11 - - SW 0 0,0
29.10.2020 18:00:00 14,5 11,9 - 22 12 46 25 SW 0 0,0
29.10.2020 17:00:00 14,3 12,0 - 21 11 - - SW 0 0,0
29.10.2020 16:00:00 14,4 11,9 - 22 12 46 25 SW 0 0,0
29.10.2020 15:00:00 14,3 11,8 - 22 12 - - SW 0 0,0
29.10.2020 14:00:00 14,0 11,7 - 22 12 50 27 SW 0 0,0
29.10.2020 13:00:00 13,7 12,0 - 21 11 50 27 SW 0 0,0
29.10.2020 12:00:00 13,3 12,2 - 24 13 - - SW 0 0,4
29.10.2020 11:00:00 12,3 11,6 - 18 10 - - SW 0 0,8
29.10.2020 10:00:00 11,7 10,7 - 21 11 - - SSW 0 0,4
29.10.2020 09:00:00 11,0 10,1 10,2 13 7 - - SSW 0 0,2
29.10.2020 08:00:00 10,9 10,0 - 13 7 - - SSW 0 0,4
29.10.2020 07:00:00 10,5 9,2 - 11 6 - - SSW 0 0,0
29.10.2020 06:00:00 9,9 7,8 - 11 6 - - SSW 0 0,0
29.10.2020 05:00:00 9,1 5,8 - 4 2 - - S 0 0,0
29.10.2020 04:00:00 9,4 5,5 - 13 7 - - SW 0 0,0
29.10.2020 03:00:00 9,0 5,3 - 13 7 - - SW 0 0,0
29.10.2020 02:00:00 8,5 5,4 - 11 6 - - SW 0 0,0
29.10.2020 01:00:00 8,1 5,1 - 11 6 - - SSW 0 0,0
29.10.2020 00:00:00 8,0 4,8 - 13 7 - - SW - 0,0
28.10.2020 23:00:00 8,4 5,1 - 15 8 - - SW 0 0,0
28.10.2020 22:00:00 8,1 4,4 - 15 8 - - WSW 0 0,0
28.10.2020 21:00:00 8,0 4,5 - 15 8 - - SW 0 0,0
28.10.2020 20:00:00 7,7 5,4 - 13 7 - - SW 0 0,0
28.10.2020 19:00:00 7,8 6,0 - 11 6 - - SSW 0 0,0
28.10.2020 18:00:00 7,8 5,4 - 9 5 - - SW 0 0,0
28.10.2020 17:00:00 8,0 5,4 - 15 8 50 27 SW 6 0,2
28.10.2020 16:00:00 9,1 6,4 - 18 10 - - WSW 0 0,0
28.10.2020 15:00:00 9,1 6,7 - 16 9 - - SW 6 0,0
28.10.2020 14:00:00 8,9 6,5 - 13 7 - - SW 0 0,4
28.10.2020 13:00:00 8,3 6,9 - 15 8 - - SW 0 1,6
28.10.2020 12:00:00 9,1 6,9 - 18 10 - - SW 12 0,6
28.10.2020 11:00:00 8,7 7,4 - 9 5 46 25 SW 0 1,0
28.10.2020 10:00:00 9,8 7,8 - 15 8 - - SW 12 0,0
28.10.2020 09:00:00 8,7 7,3 10,7 16 9 - - SSW 0 0,6
28.10.2020 08:00:00 8,1 6,5 - 11 6 - - SSW 0 0,2
28.10.2020 07:00:00 7,9 5,9 - 13 7 - - SSW 0 0,0
28.10.2020 06:00:00 8,4 6,8 - 16 9 - - SW 0 0,0
28.10.2020 05:00:00 7,9 6,5 - 16 9 - - SW 0 0,2
28.10.2020 04:00:00 7,3 5,7 - 11 6 - - SW 0 0,0
28.10.2020 03:00:00 7,5 6,0 - 11 6 - - SW 0 0,8
28.10.2020 02:00:00 8,2 6,6 - 15 8 - - SW 0 1,2
28.10.2020 01:00:00 8,9 6,3 - 18 10 - - SW 0 0,2
28.10.2020 00:00:00 8,9 5,9 - 18 10 - - SW - 0,0
27.10.2020 23:00:00 8,8 5,5 - 11 6 - - SW 0 0,0
27.10.2020 22:00:00 9,2 4,8 - 15 8 - - SW 0 0,0
27.10.2020 21:00:00 9,0 5,2 - 13 7 - - SW 0 0,0
27.10.2020 20:00:00 8,9 5,3 - 13 7 - - SW 0 0,0
27.10.2020 19:00:00 9,4 5,2 - 13 7 - - SW 0 0,0
27.10.2020 18:00:00 9,9 5,6 - 18 10 - - WSW 0 0,0
27.10.2020 17:00:00 10,7 5,7 - 18 10 - - WSW 6 0,0
27.10.2020 16:00:00 12,4 6,1 - 16 9 - - WSW 42 0,0
27.10.2020 15:00:00 12,6 7,4 - 26 14 46 25 WSW 24 0,0
27.10.2020 14:00:00 14,4 9,5 - 21 11 - - WSW 18 0,0
27.10.2020 13:00:00 13,4 12,0 - 22 12 - - SW 0 0,0
27.10.2020 12:00:00 12,7 11,5 - 13 7 - - S 0 0,0
27.10.2020 11:00:00 11,8 10,5 - 13 7 - - S 0 0,0
27.10.2020 10:00:00 10,7 9,4 - 11 6 - - S 0 0,0
27.10.2020 09:00:00 9,8 8,7 10,7 11 6 - - S 0 0,0
27.10.2020 08:00:00 8,8 7,8 - 11 6 - - S 0 0,2
27.10.2020 07:00:00 8,4 6,9 - 9 5 - - S 0 0,2
27.10.2020 06:00:00 8,5 7,4 - 11 6 - - SSW 0 0,6
27.10.2020 05:00:00 8,6 7,2 - 8 4 - - SSW 0 0,0
27.10.2020 04:00:00 8,2 6,2 - 5 3 - - SW 0 0,0
27.10.2020 03:00:00 7,5 5,6 - 4 2 - - WSW 0 0,0
27.10.2020 02:00:00 7,4 5,8 - 11 6 - - SW 0 0,0
27.10.2020 01:00:00 7,4 5,7 - 9 5 - - SW 0 0,0
27.10.2020 00:00:00 7,2 5,6 - 9 5 - - SW - 0,0
26.10.2020 23:00:00 7,9 6,1 - 13 7 - - SW 0 0,0
26.10.2020 22:00:00 8,1 6,1 - 11 6 - - WSW 0 0,0
26.10.2020 21:00:00 8,1 6,2 - 11 6 - - SSW 0 0,0
26.10.2020 20:00:00 8,6 6,1 - 13 7 - - SW 0 0,0
26.10.2020 19:00:00 8,9 5,4 - 13 7 - - WSW 0 0,0
26.10.2020 18:00:00 10,0 5,5 - 15 8 - - WSW 0 0,0
26.10.2020 17:00:00 10,4 6,1 - 13 7 - - WSW 24 0,0
26.10.2020 16:00:00 11,5 6,0 - 16 9 - - WSW 42 0,0
26.10.2020 15:00:00 11,9 6,1 - 18 10 - - W 42 0,0
26.10.2020 14:00:00 13,0 6,2 - 16 9 - - W 54 0,0
26.10.2020 13:00:00 13,4 6,5 - 16 9 - - W 36 0,0
26.10.2020 12:00:00 12,6 7,3 - 16 9 - - W 24 0,0
26.10.2020 11:00:00 11,3 7,9 - 11 6 - - WSW 0 0,0
26.10.2020 10:00:00 10,6 8,2 - 13 7 - - SW 6 0,0
26.10.2020 09:00:00 10,7 8,4 10,7 15 8 - - SW 36 0,0
26.10.2020 08:00:00 9,2 7,3 - 16 9 - - SW 6 0,0
26.10.2020 07:00:00 7,9 6,4 - 13 7 - - SW 0 0,0
26.10.2020 06:00:00 7,8 6,0 - 13 7 - - SW 0 0,2
26.10.2020 05:00:00 7,1 5,7 - 9 5 - - SSW 0 0,0
26.10.2020 04:00:00 7,1 5,8 - 9 5 - - SW 0 0,0
26.10.2020 03:00:00 7,4 6,1 - 11 6 - - SW 0 0,0
26.10.2020 02:00:00 7,7 6,4 - 9 5 - - SSW 0 0,0
26.10.2020 01:00:00 7,8 6,9 - 11 6 - - SW 0 0,0
26.10.2020 00:00:00 7,7 6,6 - 9 5 - - SW - 0,0
25.10.2020 23:00:00 7,1 6,1 - 9 5 - - SSW 0 0,0
25.10.2020 22:00:00 7,3 6,3 - 11 6 - - SW 0 0,0
25.10.2020 21:00:00 7,8 6,4 - 15 8 - - SW 0 0,2
25.10.2020 20:00:00 7,9 7,1 - 11 6 - - SW 0 0,0
25.10.2020 19:00:00 7,4 7,2 - 4 2 - - S 0 0,4
25.10.2020 18:00:00 7,2 6,7 - 4 2 - - N 0 0,4
25.10.2020 17:00:00 8,4 7,5 - 4 2 - - SSW 0 0,6
25.10.2020 16:00:00 9,1 7,2 - 8 4 - - WSW 24 0,0
25.10.2020 15:00:00 9,6 7,1 - 11 6 - - SW 24 0,4
25.10.2020 14:00:00 8,1 6,9 - 9 5 - - SSW 0 2,8
25.10.2020 13:00:00 6,7 3,7 - 18 10 52 28 W 24 3,0
25.10.2020 12:00:00 11,0 6,0 - 13 7 - - SW 54 0,0
25.10.2020 11:00:00 10,9 7,1 - 21 11 - - SW 30 0,0
25.10.2020 10:00:00 10,6 7,0 - 15 8 - - SSW 48 0,0
25.10.2020 09:00:00 9,8 6,7 11,5 9 5 - - SSW 18 0,2
25.10.2020 08:00:00 8,6 7,5 - 8 4 - - SW 0 0,6
25.10.2020 07:00:00 7,6 6,5 - 5 3 - - S 0 0,2
25.10.2020 06:00:00 7,8 6,2 - 8 4 - - SSW 0 0,0
25.10.2020 05:00:00 8,0 6,2 - 9 5 - - SSW 0 0,0
25.10.2020 04:00:00 8,2 6,5 - 9 5 - - SSW 0 0,2
25.10.2020 03:00:00 7,9 7,0 - 8 4 - - SSW 0 0,0

tt = temperature
td = dewpoint
tt -20cm = temperature -20cm
ff = wind speed
fx = gusts
dd = wind direction
sd = sunshine duration
rr = precipitation

Next stations